sensor_id;sensor_type;location;lat;lon;timestamp;P1;durP1;ratioP1;P2;durP2;ratioP2
69244;SDS011;56357;52.304;4.870;2023-07-22T00:01:27;10.02;;;4.28;;
69244;SDS011;56357;52.304;4.870;2023-07-22T00:03:53;10.40;;;4.07;;
69244;SDS011;56357;52.304;4.870;2023-07-22T00:06:20;9.95;;;4.30;;
69244;SDS011;56357;52.304;4.870;2023-07-22T00:08:46;9.18;;;4.18;;
69244;SDS011;56357;52.304;4.870;2023-07-22T00:11:13;8.98;;;4.32;;
69244;SDS011;56357;52.304;4.870;2023-07-22T00:13:39;8.73;;;4.20;;
69244;SDS011;56357;52.304;4.870;2023-07-22T00:16:08;10.20;;;4.80;;
69244;SDS011;56357;52.304;4.870;2023-07-22T00:18:36;9.63;;;4.53;;
69244;SDS011;56357;52.304;4.870;2023-07-22T00:21:02;12.45;;;5.00;;
69244;SDS011;56357;52.304;4.870;2023-07-22T00:23:29;8.75;;;4.45;;
69244;SDS011;56357;52.304;4.870;2023-07-22T00:25:56;9.60;;;4.30;;
69244;SDS011;56357;52.304;4.870;2023-07-22T00:28:22;9.25;;;4.13;;
69244;SDS011;56357;52.304;4.870;2023-07-22T00:30:49;9.98;;;4.90;;
69244;SDS011;56357;52.304;4.870;2023-07-22T00:33:18;10.55;;;4.35;;
69244;SDS011;56357;52.304;4.870;2023-07-22T00:35:48;10.70;;;4.65;;
69244;SDS011;56357;52.304;4.870;2023-07-22T00:38:16;10.32;;;4.57;;
69244;SDS011;56357;52.304;4.870;2023-07-22T00:40:44;9.88;;;4.90;;
69244;SDS011;56357;52.304;4.870;2023-07-22T00:43:10;9.30;;;4.55;;
69244;SDS011;56357;52.304;4.870;2023-07-22T00:45:37;9.65;;;4.72;;
69244;SDS011;56357;52.304;4.870;2023-07-22T00:48:05;11.52;;;5.25;;
69244;SDS011;56357;52.304;4.870;2023-07-22T00:50:32;10.85;;;4.88;;
69244;SDS011;56357;52.304;4.870;2023-07-22T00:52:59;10.77;;;4.85;;
69244;SDS011;56357;52.304;4.870;2023-07-22T00:55:26;9.77;;;4.47;;
69244;SDS011;56357;52.304;4.870;2023-07-22T00:57:54;11.55;;;4.93;;
69244;SDS011;56357;52.304;4.870;2023-07-22T01:00:21;12.30;;;5.53;;
69244;SDS011;56357;52.304;4.870;2023-07-22T01:02:48;11.05;;;5.10;;
69244;SDS011;56357;52.304;4.870;2023-07-22T01:05:15;9.40;;;4.90;;
69244;SDS011;56357;52.304;4.870;2023-07-22T01:07:42;11.07;;;5.05;;
69244;SDS011;56357;52.304;4.870;2023-07-22T01:10:09;12.88;;;5.03;;
69244;SDS011;56357;52.304;4.870;2023-07-22T01:12:36;11.00;;;5.30;;
69244;SDS011;56357;52.304;4.870;2023-07-22T01:15:03;14.82;;;6.15;;
69244;SDS011;56357;52.304;4.870;2023-07-22T01:17:32;12.30;;;5.60;;
69244;SDS011;56357;52.304;4.870;2023-07-22T01:20:01;11.95;;;5.55;;
69244;SDS011;56357;52.304;4.870;2023-07-22T01:22:28;10.88;;;5.28;;
69244;SDS011;56357;52.304;4.870;2023-07-22T01:24:55;13.05;;;5.75;;
69244;SDS011;56357;52.304;4.870;2023-07-22T01:27:22;14.05;;;6.28;;
69244;SDS011;56357;52.304;4.870;2023-07-22T01:29:52;13.10;;;5.70;;
69244;SDS011;56357;52.304;4.870;2023-07-22T01:32:19;14.65;;;5.97;;
69244;SDS011;56357;52.304;4.870;2023-07-22T01:34:46;13.63;;;6.32;;
69244;SDS011;56357;52.304;4.870;2023-07-22T01:37:12;13.68;;;6.63;;
69244;SDS011;56357;52.304;4.870;2023-07-22T01:39:39;15.15;;;6.70;;
69244;SDS011;56357;52.304;4.870;2023-07-22T01:42:05;13.45;;;6.28;;
69244;SDS011;56357;52.304;4.870;2023-07-22T01:44:32;14.80;;;6.93;;
69244;SDS011;56357;52.304;4.870;2023-07-22T01:47:01;15.65;;;7.20;;
69244;SDS011;56357;52.304;4.870;2023-07-22T01:49:28;16.13;;;8.20;;
69244;SDS011;56357;52.304;4.870;2023-07-22T01:51:55;15.30;;;6.53;;
69244;SDS011;56357;52.304;4.870;2023-07-22T01:54:22;15.32;;;7.40;;
69244;SDS011;56357;52.304;4.870;2023-07-22T01:56:48;17.15;;;7.82;;
69244;SDS011;56357;52.304;4.870;2023-07-22T01:59:15;16.50;;;7.13;;
69244;SDS011;56357;52.304;4.870;2023-07-22T02:01:41;15.57;;;7.43;;
69244;SDS011;56357;52.304;4.870;2023-07-22T02:04:08;16.73;;;7.60;;
69244;SDS011;56357;52.304;4.870;2023-07-22T02:06:36;19.35;;;8.20;;
69244;SDS011;56357;52.304;4.870;2023-07-22T02:09:02;14.05;;;7.30;;
69244;SDS011;56357;52.304;4.870;2023-07-22T02:11:34;16.17;;;7.32;;
69244;SDS011;56357;52.304;4.870;2023-07-22T02:14:01;14.93;;;7.10;;
69244;SDS011;56357;52.304;4.870;2023-07-22T02:16:33;13.80;;;6.97;;
69244;SDS011;56357;52.304;4.870;2023-07-22T02:19:01;15.88;;;7.38;;
69244;SDS011;56357;52.304;4.870;2023-07-22T02:21:29;14.95;;;7.03;;
69244;SDS011;56357;52.304;4.870;2023-07-22T02:23:56;18.80;;;8.65;;
69244;SDS011;56357;52.304;4.870;2023-07-22T02:26:22;15.13;;;7.63;;
69244;SDS011;56357;52.304;4.870;2023-07-22T02:28:49;15.25;;;7.15;;
69244;SDS011;56357;52.304;4.870;2023-07-22T02:31:15;13.25;;;6.32;;
69244;SDS011;56357;52.304;4.870;2023-07-22T02:33:42;16.25;;;6.75;;
69244;SDS011;56357;52.304;4.870;2023-07-22T02:36:08;14.98;;;6.60;;
69244;SDS011;56357;52.304;4.870;2023-07-22T02:38:35;13.40;;;6.78;;
69244;SDS011;56357;52.304;4.870;2023-07-22T02:41:02;14.57;;;7.13;;
69244;SDS011;56357;52.304;4.870;2023-07-22T02:43:31;14.98;;;6.68;;
69244;SDS011;56357;52.304;4.870;2023-07-22T02:45:59;14.00;;;6.57;;
69244;SDS011;56357;52.304;4.870;2023-07-22T02:48:28;12.98;;;6.13;;
69244;SDS011;56357;52.304;4.870;2023-07-22T02:51:01;12.48;;;6.35;;
69244;SDS011;56357;52.304;4.870;2023-07-22T02:53:34;15.15;;;6.45;;
69244;SDS011;56357;52.304;4.870;2023-07-22T02:56:02;12.75;;;6.28;;
69244;SDS011;56357;52.304;4.870;2023-07-22T02:58:29;14.07;;;6.40;;
69244;SDS011;56357;52.304;4.870;2023-07-22T03:00:56;13.93;;;6.03;;
69244;SDS011;56357;52.304;4.870;2023-07-22T03:03:23;12.32;;;5.88;;
69244;SDS011;56357;52.304;4.870;2023-07-22T03:05:50;11.98;;;5.55;;
69244;SDS011;56357;52.304;4.870;2023-07-22T03:08:17;12.95;;;5.60;;
69244;SDS011;56357;52.304;4.870;2023-07-22T03:10:45;11.88;;;4.97;;
69244;SDS011;56357;52.304;4.870;2023-07-22T03:13:14;13.90;;;5.13;;
69244;SDS011;56357;52.304;4.870;2023-07-22T03:15:41;11.27;;;5.00;;
69244;SDS011;56357;52.304;4.870;2023-07-22T03:18:08;10.95;;;5.20;;
69244;SDS011;56357;52.304;4.870;2023-07-22T03:20:36;12.30;;;5.07;;
69244;SDS011;56357;52.304;4.870;2023-07-22T03:23:06;10.65;;;5.05;;
69244;SDS011;56357;52.304;4.870;2023-07-22T03:25:33;11.68;;;5.13;;
69244;SDS011;56357;52.304;4.870;2023-07-22T03:28:04;12.38;;;4.97;;
69244;SDS011;56357;52.304;4.870;2023-07-22T03:30:32;11.65;;;4.80;;
69244;SDS011;56357;52.304;4.870;2023-07-22T03:32:59;10.60;;;4.60;;
69244;SDS011;56357;52.304;4.870;2023-07-22T03:35:26;10.98;;;4.60;;
69244;SDS011;56357;52.304;4.870;2023-07-22T03:37:53;9.82;;;4.50;;
69244;SDS011;56357;52.304;4.870;2023-07-22T03:40:20;12.90;;;4.80;;
69244;SDS011;56357;52.304;4.870;2023-07-22T03:42:53;9.50;;;4.63;;
69244;SDS011;56357;52.304;4.870;2023-07-22T03:45:21;9.55;;;4.38;;
69244;SDS011;56357;52.304;4.870;2023-07-22T03:47:52;11.60;;;4.50;;
69244;SDS011;56357;52.304;4.870;2023-07-22T03:50:20;10.40;;;4.45;;
69244;SDS011;56357;52.304;4.870;2023-07-22T03:52:46;10.13;;;4.43;;
69244;SDS011;56357;52.304;4.870;2023-07-22T03:55:13;11.35;;;5.20;;
69244;SDS011;56357;52.304;4.870;2023-07-22T03:57:40;10.38;;;4.70;;
69244;SDS011;56357;52.304;4.870;2023-07-22T04:00:06;9.85;;;4.32;;
69244;SDS011;56357;52.304;4.870;2023-07-22T04:02:35;9.57;;;4.55;;
69244;SDS011;56357;52.304;4.870;2023-07-22T04:05:02;9.63;;;4.65;;
69244;SDS011;56357;52.304;4.870;2023-07-22T04:07:29;9.73;;;4.50;;
69244;SDS011;56357;52.304;4.870;2023-07-22T04:09:55;10.18;;;4.40;;
69244;SDS011;56357;52.304;4.870;2023-07-22T04:12:22;11.15;;;4.95;;
69244;SDS011;56357;52.304;4.870;2023-07-22T04:14:49;11.13;;;4.97;;
69244;SDS011;56357;52.304;4.870;2023-07-22T04:17:15;10.00;;;4.75;;
69244;SDS011;56357;52.304;4.870;2023-07-22T04:19:42;10.77;;;4.85;;
69244;SDS011;56357;52.304;4.870;2023-07-22T04:22:08;9.93;;;4.50;;
69244;SDS011;56357;52.304;4.870;2023-07-22T04:24:35;9.02;;;4.50;;
69244;SDS011;56357;52.304;4.870;2023-07-22T04:27:02;10.23;;;4.57;;
69244;SDS011;56357;52.304;4.870;2023-07-22T04:29:29;10.20;;;5.07;;
69244;SDS011;56357;52.304;4.870;2023-07-22T04:31:59;10.27;;;4.75;;
69244;SDS011;56357;52.304;4.870;2023-07-22T04:34:30;9.15;;;4.10;;
69244;SDS011;56357;52.304;4.870;2023-07-22T04:36:57;12.35;;;5.47;;
69244;SDS011;56357;52.304;4.870;2023-07-22T04:39:24;11.02;;;5.00;;
69244;SDS011;56357;52.304;4.870;2023-07-22T04:41:50;12.50;;;5.05;;
69244;SDS011;56357;52.304;4.870;2023-07-22T04:44:18;10.93;;;5.00;;
69244;SDS011;56357;52.304;4.870;2023-07-22T04:46:45;8.38;;;4.60;;
69244;SDS011;56357;52.304;4.870;2023-07-22T04:49:12;14.85;;;4.40;;
69244;SDS011;56357;52.304;4.870;2023-07-22T04:51:42;9.20;;;4.82;;
69244;SDS011;56357;52.304;4.870;2023-07-22T04:54:10;10.45;;;4.55;;
69244;SDS011;56357;52.304;4.870;2023-07-22T04:56:37;8.15;;;3.95;;
69244;SDS011;56357;52.304;4.870;2023-07-22T04:59:04;11.45;;;4.50;;
69244;SDS011;56357;52.304;4.870;2023-07-22T05:01:31;9.10;;;4.22;;
69244;SDS011;56357;52.304;4.870;2023-07-22T05:03:57;9.02;;;4.05;;
69244;SDS011;56357;52.304;4.870;2023-07-22T05:06:25;8.63;;;4.22;;
69244;SDS011;56357;52.304;4.870;2023-07-22T05:08:51;9.93;;;4.53;;
69244;SDS011;56357;52.304;4.870;2023-07-22T05:11:18;9.70;;;3.75;;
69244;SDS011;56357;52.304;4.870;2023-07-22T05:13:44;9.93;;;4.10;;
69244;SDS011;56357;52.304;4.870;2023-07-22T05:16:11;9.60;;;4.25;;
69244;SDS011;56357;52.304;4.870;2023-07-22T05:18:37;9.98;;;4.20;;
69244;SDS011;56357;52.304;4.870;2023-07-22T05:21:04;8.30;;;3.55;;
69244;SDS011;56357;52.304;4.870;2023-07-22T05:23:31;8.60;;;3.67;;
69244;SDS011;56357;52.304;4.870;2023-07-22T05:25:57;10.45;;;3.60;;
69244;SDS011;56357;52.304;4.870;2023-07-22T05:28:24;10.57;;;4.05;;
69244;SDS011;56357;52.304;4.870;2023-07-22T05:30:51;10.73;;;4.05;;
69244;SDS011;56357;52.304;4.870;2023-07-22T05:33:17;12.25;;;4.35;;
69244;SDS011;56357;52.304;4.870;2023-07-22T05:35:44;10.25;;;3.80;;
69244;SDS011;56357;52.304;4.870;2023-07-22T05:38:10;10.30;;;3.97;;
69244;SDS011;56357;52.304;4.870;2023-07-22T05:40:36;8.90;;;3.53;;
69244;SDS011;56357;52.304;4.870;2023-07-22T05:43:03;10.52;;;3.95;;
69244;SDS011;56357;52.304;4.870;2023-07-22T05:45:29;8.80;;;3.50;;
69244;SDS011;56357;52.304;4.870;2023-07-22T05:47:56;9.55;;;3.80;;
69244;SDS011;56357;52.304;4.870;2023-07-22T05:50:22;10.43;;;4.20;;
69244;SDS011;56357;52.304;4.870;2023-07-22T05:52:49;9.68;;;3.80;;
69244;SDS011;56357;52.304;4.870;2023-07-22T05:55:16;8.73;;;4.10;;
69244;SDS011;56357;52.304;4.870;2023-07-22T05:57:42;8.18;;;3.15;;
69244;SDS011;56357;52.304;4.870;2023-07-22T06:00:09;10.43;;;3.40;;
69244;SDS011;56357;52.304;4.870;2023-07-22T06:02:38;9.80;;;4.07;;
69244;SDS011;56357;52.304;4.870;2023-07-22T06:05:04;9.45;;;3.60;;
69244;SDS011;56357;52.304;4.870;2023-07-22T06:07:31;11.02;;;4.28;;
69244;SDS011;56357;52.304;4.870;2023-07-22T06:09:57;12.32;;;3.92;;
69244;SDS011;56357;52.304;4.870;2023-07-22T06:12:24;10.32;;;4.00;;
69244;SDS011;56357;52.304;4.870;2023-07-22T06:14:50;10.88;;;3.78;;
69244;SDS011;56357;52.304;4.870;2023-07-22T06:17:17;9.98;;;3.55;;
69244;SDS011;56357;52.304;4.870;2023-07-22T06:19:45;10.35;;;4.05;;
69244;SDS011;56357;52.304;4.870;2023-07-22T06:22:11;12.45;;;4.80;;
69244;SDS011;56357;52.304;4.870;2023-07-22T06:24:38;10.15;;;4.00;;
69244;SDS011;56357;52.304;4.870;2023-07-22T06:27:04;16.85;;;4.63;;
69244;SDS011;56357;52.304;4.870;2023-07-22T06:29:31;10.75;;;4.78;;
69244;SDS011;56357;52.304;4.870;2023-07-22T06:31:57;11.85;;;4.13;;
69244;SDS011;56357;52.304;4.870;2023-07-22T06:34:26;11.15;;;4.47;;
69244;SDS011;56357;52.304;4.870;2023-07-22T06:36:54;11.95;;;5.20;;
69244;SDS011;56357;52.304;4.870;2023-07-22T06:39:20;10.63;;;4.78;;
69244;SDS011;56357;52.304;4.870;2023-07-22T06:41:47;13.50;;;4.75;;
69244;SDS011;56357;52.304;4.870;2023-07-22T06:44:13;11.02;;;4.97;;
69244;SDS011;56357;52.304;4.870;2023-07-22T06:46:40;14.80;;;5.18;;
69244;SDS011;56357;52.304;4.870;2023-07-22T06:49:07;13.80;;;5.57;;
69244;SDS011;56357;52.304;4.870;2023-07-22T06:51:33;12.73;;;5.65;;
69244;SDS011;56357;52.304;4.870;2023-07-22T06:54:01;11.68;;;5.40;;
69244;SDS011;56357;52.304;4.870;2023-07-22T06:56:28;11.40;;;4.85;;
69244;SDS011;56357;52.304;4.870;2023-07-22T06:58:55;14.93;;;6.05;;
69244;SDS011;56357;52.304;4.870;2023-07-22T07:01:22;15.88;;;6.78;;
69244;SDS011;56357;52.304;4.870;2023-07-22T07:03:48;14.70;;;6.97;;
69244;SDS011;56357;52.304;4.870;2023-07-22T07:06:15;19.02;;;7.93;;
69244;SDS011;56357;52.304;4.870;2023-07-22T07:08:42;16.92;;;7.05;;
69244;SDS011;56357;52.304;4.870;2023-07-22T07:11:08;16.23;;;6.80;;
69244;SDS011;56357;52.304;4.870;2023-07-22T07:13:35;15.30;;;6.70;;
69244;SDS011;56357;52.304;4.870;2023-07-22T07:16:24;15.10;;;6.20;;
69244;SDS011;56357;52.304;4.870;2023-07-22T07:18:52;14.68;;;6.85;;
69244;SDS011;56357;52.304;4.870;2023-07-22T07:21:20;16.08;;;7.53;;
69244;SDS011;56357;52.304;4.870;2023-07-22T07:23:47;14.77;;;6.90;;
69244;SDS011;56357;52.304;4.870;2023-07-22T07:26:14;14.93;;;6.45;;
69244;SDS011;56357;52.304;4.870;2023-07-22T07:28:42;14.50;;;6.88;;
69244;SDS011;56357;52.304;4.870;2023-07-22T07:31:09;13.98;;;5.72;;
69244;SDS011;56357;52.304;4.870;2023-07-22T07:33:36;14.13;;;6.40;;
69244;SDS011;56357;52.304;4.870;2023-07-22T07:36:02;13.43;;;6.32;;
69244;SDS011;56357;52.304;4.870;2023-07-22T07:38:29;12.55;;;5.82;;
69244;SDS011;56357;52.304;4.870;2023-07-22T07:40:58;14.57;;;7.20;;
69244;SDS011;56357;52.304;4.870;2023-07-22T07:43:26;16.67;;;6.72;;
69244;SDS011;56357;52.304;4.870;2023-07-22T07:48:52;16.33;;;6.88;;
69244;SDS011;56357;52.304;4.870;2023-07-22T07:51:22;14.35;;;6.28;;
69244;SDS011;56357;52.304;4.870;2023-07-22T07:53:51;17.40;;;7.13;;
69244;SDS011;56357;52.304;4.870;2023-07-22T07:56:18;15.82;;;7.03;;
69244;SDS011;56357;52.304;4.870;2023-07-22T07:58:46;15.50;;;6.55;;
69244;SDS011;56357;52.304;4.870;2023-07-22T08:01:14;16.08;;;7.15;;
69244;SDS011;56357;52.304;4.870;2023-07-22T08:03:41;16.58;;;8.20;;
69244;SDS011;56357;52.304;4.870;2023-07-22T08:06:09;18.73;;;7.95;;
69244;SDS011;56357;52.304;4.870;2023-07-22T08:08:36;17.00;;;7.43;;
69244;SDS011;56357;52.304;4.870;2023-07-22T08:11:09;18.63;;;7.18;;
69244;SDS011;56357;52.304;4.870;2023-07-22T08:13:38;14.52;;;6.97;;
69244;SDS011;56357;52.304;4.870;2023-07-22T08:16:07;14.85;;;6.28;;
69244;SDS011;56357;52.304;4.870;2023-07-22T08:18:34;13.60;;;6.47;;
69244;SDS011;56357;52.304;4.870;2023-07-22T08:21:05;16.92;;;6.65;;
69244;SDS011;56357;52.304;4.870;2023-07-22T08:23:32;12.57;;;6.25;;
69244;SDS011;56357;52.304;4.870;2023-07-22T08:25:59;16.55;;;6.68;;
69244;SDS011;56357;52.304;4.870;2023-07-22T08:28:26;16.42;;;6.68;;
69244;SDS011;56357;52.304;4.870;2023-07-22T08:30:56;11.82;;;5.57;;
69244;SDS011;56357;52.304;4.870;2023-07-22T08:33:23;17.67;;;6.20;;
69244;SDS011;56357;52.304;4.870;2023-07-22T08:35:51;15.65;;;6.50;;
69244;SDS011;56357;52.304;4.870;2023-07-22T08:38:18;15.35;;;6.00;;
69244;SDS011;56357;52.304;4.870;2023-07-22T08:40:47;14.05;;;6.00;;
69244;SDS011;56357;52.304;4.870;2023-07-22T08:43:16;12.35;;;5.68;;
69244;SDS011;56357;52.304;4.870;2023-07-22T08:45:47;19.73;;;6.07;;
69244;SDS011;56357;52.304;4.870;2023-07-22T08:48:16;12.80;;;5.95;;
69244;SDS011;56357;52.304;4.870;2023-07-22T08:53:12;15.32;;;6.05;;
69244;SDS011;56357;52.304;4.870;2023-07-22T08:55:39;12.27;;;5.57;;
69244;SDS011;56357;52.304;4.870;2023-07-22T08:58:10;14.73;;;5.40;;
69244;SDS011;56357;52.304;4.870;2023-07-22T09:00:38;10.63;;;4.60;;
69244;SDS011;56357;52.304;4.870;2023-07-22T09:03:05;12.73;;;4.88;;
69244;SDS011;56357;52.304;4.870;2023-07-22T09:05:33;10.27;;;4.07;;
69244;SDS011;56357;52.304;4.870;2023-07-22T09:08:02;10.93;;;4.35;;
69244;SDS011;56357;52.304;4.870;2023-07-22T09:10:30;10.15;;;4.57;;
69244;SDS011;56357;52.304;4.870;2023-07-22T09:12:58;10.45;;;4.70;;
69244;SDS011;56357;52.304;4.870;2023-07-22T09:15:25;8.88;;;4.25;;
69244;SDS011;56357;52.304;4.870;2023-07-22T09:17:53;12.95;;;4.53;;
69244;SDS011;56357;52.304;4.870;2023-07-22T09:20:20;13.95;;;4.00;;
69244;SDS011;56357;52.304;4.870;2023-07-22T09:22:48;12.82;;;4.57;;
69244;SDS011;56357;52.304;4.870;2023-07-22T09:27:48;9.25;;;3.88;;
69244;SDS011;56357;52.304;4.870;2023-07-22T09:30:26;9.52;;;3.70;;
69244;SDS011;56357;52.304;4.870;2023-07-22T09:32:55;11.85;;;4.00;;
69244;SDS011;56357;52.304;4.870;2023-07-22T09:35:27;10.70;;;3.92;;
69244;SDS011;56357;52.304;4.870;2023-07-22T09:38:14;11.18;;;4.13;;
69244;SDS011;56357;52.304;4.870;2023-07-22T09:40:42;9.68;;;3.67;;
69244;SDS011;56357;52.304;4.870;2023-07-22T09:43:09;8.68;;;3.45;;
69244;SDS011;56357;52.304;4.870;2023-07-22T09:45:37;11.25;;;3.50;;
69244;SDS011;56357;52.304;4.870;2023-07-22T09:48:04;8.13;;;3.15;;
69244;SDS011;56357;52.304;4.870;2023-07-22T09:50:31;10.80;;;4.30;;
69244;SDS011;56357;52.304;4.870;2023-07-22T09:52:58;7.28;;;3.03;;
69244;SDS011;56357;52.304;4.870;2023-07-22T09:55:27;8.93;;;2.95;;
69244;SDS011;56357;52.304;4.870;2023-07-22T09:57:59;9.55;;;3.08;;
69244;SDS011;56357;52.304;4.870;2023-07-22T10:00:31;9.43;;;2.90;;
69244;SDS011;56357;52.304;4.870;2023-07-22T10:02:59;8.88;;;3.15;;
69244;SDS011;56357;52.304;4.870;2023-07-22T10:05:29;10.55;;;3.03;;
69244;SDS011;56357;52.304;4.870;2023-07-22T10:07:59;10.38;;;2.97;;
69244;SDS011;56357;52.304;4.870;2023-07-22T10:10:27;8.35;;;3.00;;
69244;SDS011;56357;52.304;4.870;2023-07-22T10:12:57;8.48;;;2.78;;
69244;SDS011;56357;52.304;4.870;2023-07-22T10:15:25;7.28;;;2.72;;
69244;SDS011;56357;52.304;4.870;2023-07-22T10:17:54;7.28;;;3.15;;
69244;SDS011;56357;52.304;4.870;2023-07-22T10:20:22;7.80;;;2.90;;
69244;SDS011;56357;52.304;4.870;2023-07-22T10:22:50;8.55;;;2.70;;
69244;SDS011;56357;52.304;4.870;2023-07-22T10:25:18;7.28;;;2.75;;
69244;SDS011;56357;52.304;4.870;2023-07-22T10:27:46;6.72;;;2.40;;
69244;SDS011;56357;52.304;4.870;2023-07-22T10:30:15;6.25;;;2.60;;
69244;SDS011;56357;52.304;4.870;2023-07-22T10:32:43;6.95;;;2.65;;
69244;SDS011;56357;52.304;4.870;2023-07-22T10:35:13;6.43;;;2.45;;
69244;SDS011;56357;52.304;4.870;2023-07-22T10:37:46;7.70;;;2.53;;
69244;SDS011;56357;52.304;4.870;2023-07-22T10:45:24;6.43;;;2.15;;
69244;SDS011;56357;52.304;4.870;2023-07-22T10:48:07;5.35;;;1.98;;
69244;SDS011;56357;52.304;4.870;2023-07-22T10:50:38;7.00;;;2.03;;
69244;SDS011;56357;52.304;4.870;2023-07-22T10:53:06;6.68;;;2.30;;
69244;SDS011;56357;52.304;4.870;2023-07-22T10:58:31;6.25;;;2.20;;
69244;SDS011;56357;52.304;4.870;2023-07-22T11:06:59;7.80;;;1.92;;
69244;SDS011;56357;52.304;4.870;2023-07-22T11:12:00;6.88;;;2.13;;
69244;SDS011;56357;52.304;4.870;2023-07-22T11:16:58;8.43;;;1.75;;
69244;SDS011;56357;52.304;4.870;2023-07-22T11:19:28;6.78;;;2.08;;
69244;SDS011;56357;52.304;4.870;2023-07-22T11:21:55;9.80;;;2.38;;
69244;SDS011;56357;52.304;4.870;2023-07-22T11:24:22;6.25;;;1.70;;
69244;SDS011;56357;52.304;4.870;2023-07-22T11:26:50;8.40;;;1.90;;
69244;SDS011;56357;52.304;4.870;2023-07-22T11:29:18;5.15;;;1.90;;
69244;SDS011;56357;52.304;4.870;2023-07-22T11:31:45;7.68;;;1.60;;
69244;SDS011;56357;52.304;4.870;2023-07-22T11:34:14;7.30;;;1.95;;
69244;SDS011;56357;52.304;4.870;2023-07-22T11:36:42;4.95;;;1.60;;
69244;SDS011;56357;52.304;4.870;2023-07-22T11:39:15;5.82;;;1.77;;
69244;SDS011;56357;52.304;4.870;2023-07-22T11:41:43;6.30;;;1.40;;
69244;SDS011;56357;52.304;4.870;2023-07-22T11:44:11;6.00;;;1.80;;
69244;SDS011;56357;52.304;4.870;2023-07-22T11:49:33;5.60;;;1.50;;
69244;SDS011;56357;52.304;4.870;2023-07-22T11:52:07;6.43;;;1.67;;
69244;SDS011;56357;52.304;4.870;2023-07-22T11:54:35;6.05;;;1.58;;
69244;SDS011;56357;52.304;4.870;2023-07-22T11:59:47;6.90;;;1.80;;
69244;SDS011;56357;52.304;4.870;2023-07-22T12:02:18;10.18;;;1.42;;
69244;SDS011;56357;52.304;4.870;2023-07-22T12:04:53;7.38;;;1.50;;
69244;SDS011;56357;52.304;4.870;2023-07-22T12:07:30;6.90;;;1.60;;
69244;SDS011;56357;52.304;4.870;2023-07-22T12:10:07;6.20;;;1.83;;
69244;SDS011;56357;52.304;4.870;2023-07-22T12:20:13;5.20;;;1.40;;
69244;SDS011;56357;52.304;4.870;2023-07-22T12:22:41;6.55;;;1.58;;
69244;SDS011;56357;52.304;4.870;2023-07-22T12:25:08;6.30;;;1.70;;
69244;SDS011;56357;52.304;4.870;2023-07-22T12:27:34;4.70;;;1.20;;
69244;SDS011;56357;52.304;4.870;2023-07-22T12:30:02;5.97;;;1.55;;
69244;SDS011;56357;52.304;4.870;2023-07-22T12:32:30;7.93;;;1.70;;
69244;SDS011;56357;52.304;4.870;2023-07-22T12:34:57;5.20;;;1.20;;
69244;SDS011;56357;52.304;4.870;2023-07-22T12:37:23;4.63;;;1.20;;
69244;SDS011;56357;52.304;4.870;2023-07-22T12:39:51;6.88;;;1.50;;
69244;SDS011;56357;52.304;4.870;2023-07-22T12:42:17;4.65;;;1.17;;
69244;SDS011;56357;52.304;4.870;2023-07-22T12:44:44;8.55;;;1.30;;
69244;SDS011;56357;52.304;4.870;2023-07-22T12:47:11;5.40;;;1.50;;
69244;SDS011;56357;52.304;4.870;2023-07-22T12:49:37;7.45;;;1.73;;
69244;SDS011;56357;52.304;4.870;2023-07-22T12:52:04;8.38;;;1.42;;
69244;SDS011;56357;52.304;4.870;2023-07-22T12:54:34;5.72;;;1.63;;
69244;SDS011;56357;52.304;4.870;2023-07-22T12:57:03;6.43;;;1.20;;
69244;SDS011;56357;52.304;4.870;2023-07-22T12:59:30;4.50;;;1.23;;
69244;SDS011;56357;52.304;4.870;2023-07-22T13:01:57;6.93;;;1.38;;
69244;SDS011;56357;52.304;4.870;2023-07-22T13:04:24;6.00;;;1.15;;
69244;SDS011;56357;52.304;4.870;2023-07-22T13:06:51;4.57;;;1.10;;
69244;SDS011;56357;52.304;4.870;2023-07-22T13:09:18;4.95;;;1.10;;
69244;SDS011;56357;52.304;4.870;2023-07-22T13:11:45;5.45;;;1.50;;
69244;SDS011;56357;52.304;4.870;2023-07-22T13:14:12;5.90;;;1.30;;
69244;SDS011;56357;52.304;4.870;2023-07-22T13:16:39;4.90;;;1.15;;
69244;SDS011;56357;52.304;4.870;2023-07-22T13:19:05;6.07;;;1.10;;
69244;SDS011;56357;52.304;4.870;2023-07-22T13:21:32;4.93;;;1.45;;
69244;SDS011;56357;52.304;4.870;2023-07-22T13:23:58;6.47;;;1.17;;
69244;SDS011;56357;52.304;4.870;2023-07-22T13:26:25;4.88;;;1.15;;
69244;SDS011;56357;52.304;4.870;2023-07-22T13:28:51;4.10;;;1.00;;
69244;SDS011;56357;52.304;4.870;2023-07-22T13:31:19;4.65;;;1.40;;
69244;SDS011;56357;52.304;4.870;2023-07-22T13:33:45;4.43;;;1.38;;
69244;SDS011;56357;52.304;4.870;2023-07-22T13:36:12;4.68;;;1.23;;
69244;SDS011;56357;52.304;4.870;2023-07-22T13:38:38;4.57;;;1.35;;
69244;SDS011;56357;52.304;4.870;2023-07-22T13:41:05;5.38;;;1.27;;
69244;SDS011;56357;52.304;4.870;2023-07-22T13:43:31;4.32;;;1.17;;
69244;SDS011;56357;52.304;4.870;2023-07-22T13:45:58;5.47;;;1.10;;
69244;SDS011;56357;52.304;4.870;2023-07-22T13:48:24;4.70;;;1.20;;
69244;SDS011;56357;52.304;4.870;2023-07-22T13:50:51;4.22;;;1.30;;
69244;SDS011;56357;52.304;4.870;2023-07-22T13:53:17;5.18;;;1.10;;
69244;SDS011;56357;52.304;4.870;2023-07-22T13:55:44;4.00;;;1.35;;
69244;SDS011;56357;52.304;4.870;2023-07-22T13:58:10;4.47;;;1.17;;
69244;SDS011;56357;52.304;4.870;2023-07-22T14:00:37;5.50;;;1.35;;
69244;SDS011;56357;52.304;4.870;2023-07-22T14:03:04;3.90;;;1.30;;
69244;SDS011;56357;52.304;4.870;2023-07-22T14:05:31;5.30;;;1.15;;
69244;SDS011;56357;52.304;4.870;2023-07-22T14:07:57;4.68;;;1.35;;
69244;SDS011;56357;52.304;4.870;2023-07-22T14:10:24;5.90;;;1.17;;
69244;SDS011;56357;52.304;4.870;2023-07-22T14:12:51;4.47;;;1.45;;
69244;SDS011;56357;52.304;4.870;2023-07-22T14:15:17;4.30;;;1.08;;
69244;SDS011;56357;52.304;4.870;2023-07-22T14:17:44;4.45;;;1.27;;
69244;SDS011;56357;52.304;4.870;2023-07-22T14:20:10;5.25;;;1.42;;
69244;SDS011;56357;52.304;4.870;2023-07-22T14:22:37;4.95;;;1.10;;
69244;SDS011;56357;52.304;4.870;2023-07-22T14:25:04;4.50;;;1.40;;
69244;SDS011;56357;52.304;4.870;2023-07-22T14:27:31;3.70;;;1.10;;
69244;SDS011;56357;52.304;4.870;2023-07-22T14:29:57;3.92;;;1.23;;
69244;SDS011;56357;52.304;4.870;2023-07-22T14:32:23;4.60;;;1.30;;
69244;SDS011;56357;52.304;4.870;2023-07-22T14:34:50;6.00;;;1.10;;
69244;SDS011;56357;52.304;4.870;2023-07-22T14:37:17;4.20;;;1.35;;
69244;SDS011;56357;52.304;4.870;2023-07-22T14:39:43;3.78;;;1.15;;
69244;SDS011;56357;52.304;4.870;2023-07-22T14:42:10;5.65;;;1.30;;
69244;SDS011;56357;52.304;4.870;2023-07-22T14:44:36;4.47;;;1.20;;
69244;SDS011;56357;52.304;4.870;2023-07-22T14:47:03;4.57;;;1.15;;
69244;SDS011;56357;52.304;4.870;2023-07-22T14:49:30;6.93;;;1.27;;
69244;SDS011;56357;52.304;4.870;2023-07-22T14:51:56;5.10;;;1.10;;
69244;SDS011;56357;52.304;4.870;2023-07-22T14:54:23;5.05;;;1.27;;
69244;SDS011;56357;52.304;4.870;2023-07-22T14:56:49;4.00;;;1.20;;
69244;SDS011;56357;52.304;4.870;2023-07-22T14:59:16;4.95;;;1.30;;
69244;SDS011;56357;52.304;4.870;2023-07-22T15:01:42;5.05;;;1.38;;
69244;SDS011;56357;52.304;4.870;2023-07-22T15:04:09;4.68;;;1.10;;
69244;SDS011;56357;52.304;4.870;2023-07-22T15:06:36;3.88;;;0.88;;
69244;SDS011;56357;52.304;4.870;2023-07-22T15:09:03;7.70;;;1.50;;
69244;SDS011;56357;52.304;4.870;2023-07-22T15:11:34;6.13;;;1.60;;
69244;SDS011;56357;52.304;4.870;2023-07-22T15:14:02;4.75;;;1.10;;
69244;SDS011;56357;52.304;4.870;2023-07-22T15:16:29;5.60;;;1.48;;
69244;SDS011;56357;52.304;4.870;2023-07-22T15:18:57;4.82;;;1.33;;
69244;SDS011;56357;52.304;4.870;2023-07-22T15:21:23;5.00;;;1.23;;
69244;SDS011;56357;52.304;4.870;2023-07-22T15:23:50;5.90;;;1.58;;